map of HDY home
HDY - Airport
Location
City:  Hat Yai, Songkhla, Thailand
Name:Hat Yai International Airport
ICAO:VTSS
IATA:HDY

Details
Type:Airport (Aerodrome, Airfield)
Use:Public/Civil, International (customs port of entry)
Latitude:656'00"N (6.933206)
Longitude:10023'35"E (100.392975)
Datum:WGS 1984
Elevation:90 ft (27 m)
Variation:0.24W (WMM2015 magnetic declination)
0.01 annual change
Runways:1
Longest:10007 × 148 ft (3050 × 45 m), paved

Time
Time Zone:UTC+7
Local Time:

Weather
METAR:VTSS 210930Z 07008KT 9999 FEW020 31/22 Q1010 NOSIG
TAF:VTSS 210500Z 2106/2206 06010KT 9999 FEW020
BECMG 2114/2116 27003KT
BECMG 2203/2205 06010KT

Related Locations
Nearby:
Farthest:SPYO: 12448 mi / 20033 km
Pacasmayo [Pacasmayo Airport], LAL, PE

Find:

   beyond  
but within

Other Information
Maps:
NOTAMs:
Links:
Sources:

  
  • flag of Thailand
  

Sectional Chart

Flight Planning
at skyvector.com

Satellite Image

Google Maps Satellite view

 

Copyright © 2004-2019 Karl L. Swartz. All rights reserved.
The Great Circle Mapper name and logo are trademarks of the Great Circle Mapper.
All other trademarks mentioned herein belong to their respective owners.
Please see credits for attibutions and further copyright information.

  Follow gcmap on Facebook Follow gcmap on Twitter Follow gcmap on Google+ GCmap on LinkedIn

hCard Microformat

Geo Microformat